Time;durP1;ratioP1;P1;durP2;ratioP2;P2;SDS_P1;SDS_P2;PMS_P1;PMS_P2;Temp;Humidity;BMP_temperature;BMP_pressure;BME280_temperature;BME280_humidity;BME280_pressure;Samples;Min_cycle;Max_cycle;Signal;HPM_P1;HPM_P2
2022/04/22 00:00:48;;;;;;;0.90;0.90;;;12.70;99.90;12.50;100757.00;;;;5054462;28;20661;-68
2022/04/22 00:03:14;;;;;;;0.63;0.50;;;12.70;99.90;12.50;100749.00;;;;5074172;28;20227;-68
2022/04/22 00:05:40;;;;;;;2.10;1.37;;;12.70;99.90;12.40;100742.00;;;;5091598;28;20602;-69
2022/04/22 00:08:06;;;;;;;0.50;0.50;;;12.70;99.90;12.30;100745.00;;;;5091092;28;20211;-69
2022/04/22 00:10:35;;;;;;;0.93;0.93;;;12.60;99.90;12.20;100732.00;;;;5091059;28;20185;-68
2022/04/22 00:13:04;;;;;;;1.70;0.93;;;12.50;99.90;12.30;100742.00;;;;5091443;28;20201;-68
2022/04/22 00:15:36;;;;;;;1.50;1.13;;;12.50;99.90;12.10;100706.00;;;;5091008;28;20681;-68
2022/04/22 00:18:02;;;;;;;1.43;1.33;;;12.50;99.90;12.30;100707.00;;;;5091029;28;20181;-68
2022/04/22 00:20:28;;;;;;;0.63;0.63;;;12.50;99.90;12.40;100739.00;;;;5075713;28;20177;-68
2022/04/22 00:22:54;;;;;;;1.60;1.10;;;12.50;99.90;12.00;100735.00;;;;5075042;28;20185;-69
2022/04/22 00:25:20;;;;;;;0.33;0.27;;;12.40;99.90;12.20;100733.00;;;;5075303;28;20505;-68
2022/04/22 00:27:49;;;;;;;2.63;2.07;;;12.40;99.90;12.00;100695.00;;;;5090717;28;20166;-68
2022/04/22 00:30:14;;;;;;;0.93;0.93;;;12.30;99.90;11.90;100726.00;;;;5089944;28;20225;-68
2022/04/22 00:32:40;;;;;;;0.30;0.30;;;12.30;99.90;11.90;100721.00;;;;5083421;28;20275;-68
2022/04/22 00:35:07;;;;;;;1.50;1.40;;;12.20;99.90;11.80;100721.00;;;;5090657;28;20197;-68
2022/04/22 00:37:33;;;;;;;0.30;0.30;;;12.20;99.90;12.00;100678.00;;;;5073525;28;20204;-68
2022/04/22 00:39:59;;;;;;;1.20;1.07;;;12.20;99.90;11.80;100707.00;;;;5090595;28;20203;-68
2022/04/22 00:42:28;;;;;;;2.67;1.00;;;12.20;99.90;11.70;100699.00;;;;5090447;28;20189;-68
2022/04/22 00:44:57;;;;;;;1.27;1.20;;;12.10;99.90;11.80;100696.00;;;;5090462;28;20181;-68
2022/04/22 00:47:24;;;;;;;0.30;0.30;;;12.10;99.90;11.90;100704.00;;;;5073545;28;20566;-68
2022/04/22 00:49:51;;;;;;;0.50;0.50;;;12.20;99.90;11.80;100698.00;;;;5073882;28;20178;-68
2022/04/22 00:52:21;;;;;;;0.43;0.43;;;12.10;99.90;12.00;100703.00;;;;5090411;28;20587;-68
2022/04/22 00:54:48;;;;;;;0.53;0.53;;;12.10;99.90;11.60;100642.00;;;;5089270;28;20636;-68
2022/04/22 00:57:16;;;;;;;1.30;1.20;;;12.10;99.90;11.60;100648.00;;;;5090049;28;20230;-68
2022/04/22 00:59:43;;;;;;;1.10;1.00;;;12.00;99.90;11.60;100692.00;;;;5090184;28;20185;-68
2022/04/22 01:02:09;;;;;;;0.30;0.30;;;12.00;99.90;11.80;100641.00;;;;5073025;28;20200;-68
2022/04/22 01:10:08;;;;;;;0.50;0.50;;;11.90;99.90;11.50;100668.00;;;;5087808;28;20198;-69
2022/04/22 01:12:34;;;;;;;2.33;1.73;;;11.80;99.90;11.30;100673.00;;;;5089702;28;20205;-69
2022/04/22 01:15:04;;;;;;;0.43;0.43;;;11.80;99.90;11.60;100644.00;;;;5089861;28;20173;-69
2022/04/22 01:17:31;;;;;;;0.30;0.30;;;11.80;99.90;11.70;100656.00;;;;5089983;28;20184;-68
2022/04/22 01:19:57;;;;;;;1.97;1.83;;;11.80;99.90;11.50;100660.00;;;;5089907;28;20190;-68
2022/04/22 01:22:23;;;;;;;1.27;1.23;;;11.80;99.90;11.20;100651.00;;;;5089767;28;20268;-68
2022/04/22 01:24:58;;;;;;;0.70;0.63;;;11.70;99.90;11.10;100633.00;;;;5074385;28;20264;-69
2022/04/22 01:27:29;;;;;;;0.20;0.20;;;11.60;99.90;11.10;100633.00;;;;5089760;28;20174;-69
2022/04/22 01:30:01;;;;;;;0.30;0.30;;;11.50;99.90;11.30;100615.00;;;;5087318;28;20207;-69
2022/04/22 01:32:27;;;;;;;4.43;2.27;;;11.60;99.90;10.80;100633.00;;;;5088260;28;20266;-69
2022/04/22 01:34:54;;;;;;;0.83;0.83;;;11.50;99.90;10.90;100625.00;;;;5087599;28;20183;-69
2022/04/22 01:37:25;;;;;;;1.90;1.80;;;11.40;99.90;11.10;100636.00;;;;5070520;28;20188;-69
2022/04/22 01:39:52;;;;;;;0.40;0.40;;;11.50;99.90;11.10;100626.00;;;;5087213;28;20182;-69
2022/04/22 01:42:20;;;;;;;0.80;0.80;;;11.40;99.90;11.00;100620.00;;;;5087210;28;20189;-69
2022/04/22 01:44:49;;;;;;;0.60;0.60;;;11.40;99.90;11.10;100612.00;;;;5088055;28;20692;-69
2022/04/22 01:47:16;;;;;;;0.40;0.40;;;11.40;99.90;11.20;100623.00;;;;5088584;28;20601;-68
2022/04/22 01:49:42;;;;;;;1.63;1.13;;;11.40;99.90;11.10;100627.00;;;;5089421;28;20173;-68
2022/04/22 01:52:11;;;;;;;0.87;0.87;;;11.40;99.90;10.80;100616.00;;;;5089362;28;20201;-68
2022/04/22 01:54:37;;;;;;;1.07;0.97;;;11.30;99.90;10.60;100607.00;;;;5072511;28;20188;-68
2022/04/22 01:57:06;;;;;;;2.43;1.87;;;11.20;99.90;10.60;100619.00;;;;5072377;28;20232;-68
2022/04/22 01:59:35;;;;;;;1.17;0.93;;;11.20;99.90;10.60;100613.00;;;;5070931;28;20178;-67
2022/04/22 02:02:01;;;;;;;0.93;0.93;;;11.20;99.90;10.70;100606.00;;;;5089525;28;20697;-68
2022/04/22 02:04:27;;;;;;;1.37;1.27;;;11.20;99.90;10.60;100610.00;;;;5088990;28;20648;-68
2022/04/22 02:07:13;;;;;;;1.07;1.07;;;11.10;99.90;10.60;100606.00;;;;5088841;28;20177;-68
2022/04/22 02:09:45;;;;;;;2.60;2.40;;;11.10;99.90;10.50;100608.00;;;;5071250;28;20196;-68
2022/04/22 02:12:10;;;;;;;0.57;0.57;;;11.10;99.90;10.80;100610.00;;;;5088971;28;20207;-67
2022/04/22 02:14:45;;;;;;;0.97;0.97;;;11.10;99.90;10.60;100606.00;;;;5088934;28;20177;-70
2022/04/22 02:17:11;;;;;;;0.50;0.50;;;11.10;99.90;10.80;100604.00;;;;5072486;28;20510;-68
2022/04/22 02:19:40;;;;;;;1.13;1.10;;;11.10;99.90;10.40;100603.00;;;;5088717;28;20179;-69
2022/04/22 02:22:09;;;;;;;0.70;0.70;;;11.00;99.90;10.40;100553.00;;;;5088531;28;20205;-69
2022/04/22 02:24:40;;;;;;;4.03;1.60;;;10.90;99.90;10.30;100599.00;;;;5088914;28;20173;-68
2022/04/22 02:29:50;;;;;;;0.80;0.67;;;10.80;99.90;10.10;100547.00;;;;5086327;28;20282;-68
2022/04/22 02:32:19;;;;;;;2.27;2.10;;;10.80;99.90;10.10;100590.00;;;;5088592;28;20251;-68
2022/04/22 02:34:48;;;;;;;2.80;1.07;;;10.70;99.90;10.40;100588.00;;;;5071894;28;20180;-68
2022/04/22 02:37:13;;;;;;;4.13;2.60;;;10.80;99.90;10.60;100588.00;;;;5073349;28;20180;-68
2022/04/22 02:39:42;;;;;;;0.70;0.70;;;10.90;99.90;10.10;100574.00;;;;5072730;28;20268;-68
2022/04/22 02:47:41;;;;;;;0.50;0.50;;;10.80;99.90;10.30;100588.00;;;;5086478;28;20549;-68
2022/04/22 02:50:13;;;;;;;0.30;0.30;;;10.70;99.90;10.20;100568.00;;;;5088178;28;20187;-68
2022/04/22 02:52:39;;;;;;;0.30;0.30;;;10.70;99.90;10.10;100533.00;;;;5071573;28;20622;-68
2022/04/22 02:55:05;;;;;;;2.10;1.60;;;10.70;99.90;9.90;100560.00;;;;5088205;28;20174;-68
2022/04/22 02:57:31;;;;;;;0.80;0.80;;;10.60;99.90;10.50;100565.00;;;;5071995;28;20606;-68
2022/04/22 02:59:57;;;;;;;1.50;1.40;;;10.70;99.90;9.90;100529.00;;;;5088704;28;20281;-68
2022/04/22 03:02:25;;;;;;;2.20;1.50;;;10.60;99.90;10.10;100530.00;;;;5088638;28;20286;-68
2022/04/22 03:04:54;;;;;;;1.03;0.80;;;10.60;99.90;10.00;100555.00;;;;5088459;28;20181;-68
2022/04/22 03:07:28;;;;;;;0.37;0.37;;;10.50;99.90;10.30;100561.00;;;;5071682;28;20213;-68
2022/04/22 03:09:56;;;;;;;0.67;0.67;;;10.60;99.90;9.80;100566.00;;;;5087804;28;20363;-68
2022/04/22 03:12:25;;;;;;;1.60;1.50;;;10.50;99.90;9.90;100563.00;;;;5071534;28;20691;-68
2022/04/22 03:14:51;;;;;;;1.17;1.07;;;10.40;99.90;9.90;100560.00;;;;5088075;28;20170;-68
2022/04/22 03:17:20;;;;;;;2.60;2.13;;;10.40;99.90;9.90;100517.00;;;;5088365;28;20629;-68
2022/04/22 03:19:45;;;;;;;3.00;2.47;;;10.40;99.90;9.60;100544.00;;;;5091655;28;20185;-68
2022/04/22 03:22:11;;;;;;;3.90;1.57;;;10.30;99.90;9.50;100546.00;;;;5091729;28;20178;-69
2022/04/22 03:24:37;;;;;;;1.53;1.43;;;10.20;99.90;9.50;100554.00;;;;5091938;28;20197;-69
2022/04/22 03:27:03;;;;;;;1.60;1.53;;;10.20;99.90;9.60;100536.00;;;;5092056;28;20555;-69
2022/04/22 03:29:30;;;;;;;1.33;1.23;;;10.20;99.90;9.90;100547.00;;;;5076466;28;20238;-70
2022/04/22 03:31:58;;;;;;;1.90;1.57;;;10.30;99.90;9.60;100512.00;;;;5075984;28;20206;-70
2022/04/22 03:34:24;;;;;;;0.80;0.80;;;10.20;99.90;10.00;100536.00;;;;5091747;28;20182;-70
2022/04/22 03:36:50;;;;;;;1.43;1.20;;;10.40;99.90;9.70;100533.00;;;;5075760;28;20239;-69
2022/04/22 03:39:16;;;;;;;2.43;1.33;;;10.30;99.90;9.80;100538.00;;;;5088739;28;20243;-68
2022/04/22 03:41:42;;;;;;;3.40;2.60;;;10.20;99.90;9.70;100533.00;;;;5074672;28;20608;-70
2022/04/22 03:44:11;;;;;;;1.53;1.43;;;10.30;99.90;10.00;100530.00;;;;5074873;28;20181;-70
2022/04/22 03:46:39;;;;;;;3.50;2.80;;;10.30;99.90;9.80;100501.00;;;;5091430;28;20221;-70
2022/04/22 03:49:09;;;;;;;1.57;1.47;;;10.30;99.90;9.60;100536.00;;;;5074590;28;20174;-70
2022/04/22 03:51:39;;;;;;;1.13;0.83;;;10.20;99.90;9.80;100531.00;;;;5090545;28;20200;-70
2022/04/22 03:54:07;;;;;;;0.70;0.70;;;10.20;99.90;9.70;100499.00;;;;5091259;28;20178;-70
2022/04/22 03:59:21;;;;;;;1.53;1.43;;;10.20;99.90;9.80;100538.00;;;;5075868;28;20627;-70
2022/04/22 04:01:52;;;;;;;2.47;1.63;;;10.20;99.90;9.70;100536.00;;;;5075508;28;20184;-70
2022/04/22 04:04:21;;;;;;;0.77;0.77;;;10.20;99.90;9.50;100504.00;;;;5091238;28;20180;-70
2022/04/22 04:06:47;;;;;;;0.57;0.57;;;10.10;99.90;9.80;100543.00;;;;5090850;28;20623;-70
2022/04/22 04:17:35;;;;;;;0.87;0.87;;;10.00;99.90;9.40;100552.00;;;;5075333;28;20243;-70
2022/04/22 04:25:30;;;;;;;6.50;3.60;;;9.80;99.90;9.50;100546.00;;;;5088559;28;20234;-70
2022/04/22 04:27:59;;;;;;;10.77;1.10;;;9.90;99.90;9.60;100542.00;;;;5091064;28;20189;-70
2022/04/22 04:30:30;;;;;;;0.77;0.77;;;9.90;99.90;9.80;100537.00;;;;5090829;28;20178;-70
2022/04/22 04:32:59;;;;;;;0.80;0.80;;;10.00;99.90;9.70;100503.00;;;;5090722;28;20209;-70
2022/04/22 04:35:28;;;;;;;1.37;1.37;;;10.00;99.90;9.90;100544.00;;;;5073893;28;20574;-70
2022/04/22 04:37:54;;;;;;;2.87;0.93;;;10.10;99.90;9.80;100532.00;;;;5089754;28;20187;-70
2022/04/22 04:40:23;;;;;;;2.37;2.10;;;10.20;99.90;9.80;100542.00;;;;5073845;28;20192;-70
2022/04/22 04:42:56;;;;;;;2.10;1.93;;;10.10;99.90;9.60;100543.00;;;;5073847;28;20221;-70
2022/04/22 04:45:28;;;;;;;0.90;0.73;;;10.00;99.90;9.60;100500.00;;;;5074278;28;20227;-70
2022/04/22 04:47:57;;;;;;;1.17;1.10;;;10.00;99.90;9.30;100540.00;;;;5073447;28;20506;-70
2022/04/22 04:50:25;;;;;;;6.27;4.10;;;9.90;99.90;9.10;100548.00;;;;5073577;28;20217;-70
2022/04/22 04:52:51;;;;;;;1.67;1.57;;;9.80;99.90;9.70;100545.00;;;;5073455;28;20209;-69
2022/04/22 04:55:18;;;;;;;0.40;0.40;;;9.90;99.90;9.40;100547.00;;;;5074132;28;20162;-70
2022/04/22 04:57:46;;;;;;;1.27;1.17;;;9.90;99.90;9.30;100538.00;;;;5073334;28;20606;-69
2022/04/22 05:00:13;;;;;;;0.90;0.90;;;9.80;99.90;9.40;100540.00;;;;5073246;28;20173;-70
2022/04/22 05:02:40;;;;;;;3.63;3.33;;;9.90;99.90;9.60;100542.00;;;;5090317;28;20217;-70
2022/04/22 05:05:09;;;;;;;0.50;0.50;;;10.00;99.90;9.60;100543.00;;;;5073148;28;20188;-70
2022/04/22 05:07:56;;;;;;;7.83;4.40;;;9.90;99.90;9.10;100528.00;;;;5073463;28;20201;-70
2022/04/22 05:10:30;;;;;;;3.63;3.33;;;9.90;99.90;9.10;100556.00;;;;5073260;28;20585;-70
2022/04/22 05:13:03;;;;;;;2.73;2.50;;;9.80;99.90;9.10;100522.00;;;;5056153;28;20308;-70
2022/04/22 05:15:33;;;;;;;2.50;2.20;;;9.80;99.90;9.20;100561.00;;;;5075166;28;20155;-69
2022/04/22 05:18:03;;;;;;;4.33;2.57;;;9.90;99.90;9.80;100508.00;;;;5065478;28;20551;-70
2022/04/22 05:20:30;;;;;;;8.43;2.50;;;10.20;99.90;10.00;100543.00;;;;5052735;28;20210;-70
2022/04/22 05:22:59;;;;;;;0.70;0.70;;;10.50;99.90;10.10;100540.00;;;;5053142;28;20191;-70
2022/04/22 05:25:25;;;;;;;3.77;3.40;;;10.60;99.90;10.40;100542.00;;;;5053241;28;20667;-71
2022/04/22 05:27:51;;;;;;;2.60;2.50;;;10.90;99.90;11.40;100532.00;;;;5052951;28;20178;-68
2022/04/22 05:33:03;;;;;;;0.43;0.43;;;11.40;99.90;10.90;100531.00;;;;5061342;28;20251;-69
2022/04/22 05:35:29;;;;;;;0.40;0.40;;;11.30;99.90;10.90;100534.00;;;;5055904;28;20210;-68
2022/04/22 05:38:06;;;;;;;2.23;1.40;;;11.40;99.90;10.80;100537.00;;;;5090035;28;20181;-69
2022/04/22 05:40:40;;;;;;;3.53;2.27;;;11.50;99.90;10.50;100526.00;;;;5089005;28;20193;-69
2022/04/22 05:43:08;;;;;;;1.53;1.43;;;11.30;99.90;11.30;100527.00;;;;5089346;28;20246;-69
2022/04/22 05:45:38;;;;;;;1.70;1.50;;;11.70;99.90;11.40;100529.00;;;;5073635;28;20179;-69
2022/04/22 05:48:07;;;;;;;0.57;0.57;;;11.80;99.90;11.50;100535.00;;;;5083256;28;20195;-68
2022/04/22 05:50:35;;;;;;;1.97;1.83;;;11.80;99.90;11.50;100541.00;;;;5061400;28;20543;-68
2022/04/22 05:53:04;;;;;;;0.70;0.70;;;11.90;99.90;12.20;100534.00;;;;5069049;28;20245;-68
2022/04/22 05:55:34;;;;;;;3.57;3.27;;;12.40;99.90;11.50;100527.00;;;;5053772;28;20180;-68
2022/04/22 05:58:00;;;;;;;4.57;2.50;;;12.40;99.90;12.00;100506.00;;;;5069297;28;20188;-69
2022/04/22 06:00:32;;;;;;;1.27;1.20;;;12.50;99.90;12.50;100539.00;;;;5075761;28;20190;-68
2022/04/22 06:03:02;;;;;;;3.33;2.20;;;12.90;99.90;11.40;100516.00;;;;5072389;28;20195;-68
2022/04/22 06:05:29;;;;;;;3.17;2.97;;;12.40;99.90;11.50;100528.00;;;;5081611;28;20243;-68
2022/04/22 06:10:40;;;;;;;3.50;2.70;;;12.60;99.90;12.90;100545.00;;;;5053189;28;20200;-68
2022/04/22 06:13:07;;;;;;;2.33;1.77;;;13.00;99.90;12.30;100499.00;;;;5060471;28;20218;-69
2022/04/22 06:15:33;;;;;;;4.47;2.63;;;12.90;99.90;13.30;100538.00;;;;5068872;28;20197;-68
2022/04/22 06:18:02;;;;;;;4.70;2.43;;;13.50;99.90;13.20;100545.00;;;;5071269;28;20197;-68
2022/04/22 06:20:33;;;;;;;3.00;2.17;;;13.70;99.90;13.50;100527.00;;;;5088066;28;20314;-68
2022/04/22 06:23:02;;;;;;;1.30;1.20;;;13.70;99.90;14.50;100557.00;;;;5088635;28;20605;-68
2022/04/22 06:25:28;;;;;;;3.30;1.37;;;14.40;99.90;14.30;100499.00;;;;5088643;28;20187;-69
2022/04/22 06:27:58;;;;;;;4.87;2.33;;;14.40;99.90;15.00;100565.00;;;;5085438;28;20279;-68
2022/04/22 06:30:24;;;;;;;4.97;2.07;;;15.10;99.90;14.40;100556.00;;;;5068736;28;20208;-68
2022/04/22 06:32:55;;;;;;;0.53;0.53;;;14.60;99.90;14.90;100559.00;;;;5051610;28;20563;-68
2022/04/22 06:35:24;;;;;;;0.67;0.67;;;14.80;99.90;13.90;100550.00;;;;5053097;28;20178;-68
2022/04/22 06:37:52;;;;;;;1.20;1.20;;;14.40;99.90;14.90;100564.00;;;;5053104;28;20225;-68
2022/04/22 06:45:54;;;;;;;2.23;2.00;;;14.30;99.90;12.90;100529.00;;;;5063526;28;20193;-68
2022/04/22 06:48:30;;;;;;;1.23;1.13;;;14.00;99.90;13.20;100543.00;;;;5064221;28;20235;-67
2022/04/22 06:50:58;;;;;;;5.87;3.70;;;13.70;99.90;14.00;100553.00;;;;5070433;28;20660;-68
2022/04/22 06:53:25;;;;;;;1.70;1.60;;;14.30;99.90;13.90;100547.00;;;;5072983;28;20243;-68
2022/04/22 06:55:58;;;;;;;3.70;2.60;;;14.30;99.90;15.50;100562.00;;;;5075302;28;20175;-68
2022/04/22 06:58:28;;;;;;;2.00;1.57;;;14.90;99.90;15.30;100582.00;;;;5075083;28;20176;-68
2022/04/22 07:00:54;;;;;;;3.03;2.63;;;15.30;99.90;15.50;100587.00;;;;5074897;28;20648;-68
2022/04/22 07:03:20;;;;;;;3.57;3.27;;;15.50;99.90;14.40;100583.00;;;;5075117;28;20539;-68
2022/04/22 07:05:51;;;;;;;0.60;0.60;;;15.20;99.90;15.70;100591.00;;;;5075317;28;20621;-68
2022/04/22 07:08:20;;;;;;;3.13;2.60;;;15.60;99.90;15.00;100581.00;;;;5076731;28;20183;-68
2022/04/22 07:10:49;;;;;;;4.87;3.90;;;15.40;99.90;14.10;100579.00;;;;5076520;28;20188;-68
2022/04/22 07:13:16;;;;;;;1.93;1.23;;;14.90;99.90;13.30;100543.00;;;;5075066;28;20213;-68
2022/04/22 07:15:51;;;;;;;1.97;1.80;;;13.90;99.90;13.10;100535.00;;;;5058271;28;20621;-68
2022/04/22 07:18:17;;;;;;;1.90;1.50;;;13.40;99.90;13.90;100551.00;;;;5075352;28;20199;-68
2022/04/22 07:20:44;;;;;;;3.43;3.03;;;13.80;99.90;11.90;100479.00;;;;5076505;28;20194;-68
2022/04/22 07:23:12;;;;;;;3.00;2.30;;;13.00;99.90;12.80;100522.00;;;;5075350;28;20283;-67
2022/04/22 07:25:38;;;;;;;4.00;2.13;;;13.00;99.90;14.10;100541.00;;;;5075572;28;20169;-68
2022/04/22 07:28:04;;;;;;;2.30;2.07;;;13.80;99.90;14.80;100525.00;;;;5091723;28;20178;-67
2022/04/22 07:30:30;;;;;;;1.83;1.60;;;14.60;99.90;13.30;100528.00;;;;5074914;28;20250;-68
2022/04/22 07:33:00;;;;;;;5.80;4.07;;;14.20;99.90;13.10;100489.00;;;;5074215;28;20205;-67
2022/04/22 07:35:26;;;;;;;1.73;1.60;;;14.00;99.90;13.30;100516.00;;;;5065796;28;20282;-68
2022/04/22 07:37:55;;;;;;;1.60;1.43;;;13.80;99.90;14.50;100508.00;;;;5062891;28;20210;-68
2022/04/22 07:40:22;;;;;;;6.73;3.83;;;14.50;99.90;16.00;100571.00;;;;5070602;28;20196;-68
2022/04/22 07:48:26;;;;;;;1.50;1.40;;;16.00;99.90;15.10;100570.00;;;;5074992;28;20224;-69
2022/04/22 07:50:54;;;;;;;4.50;3.13;;;15.70;99.90;15.00;100579.00;;;;5074853;28;20171;-70
2022/04/22 07:53:21;;;;;;;1.03;1.03;;;15.40;99.90;15.80;100577.00;;;;5062727;28;20570;-71
2022/04/22 07:55:48;;;;;;;4.27;2.50;;;15.70;99.90;17.00;100595.00;;;;5071369;28;20269;-72
2022/04/22 07:58:16;;;;;;;3.33;2.57;;;16.60;99.90;17.80;100627.00;;;;5056451;28;20191;-71
2022/04/22 08:00:47;;;;;;;1.17;1.15;;;17.40;99.90;18.40;100629.00;;;;5074721;28;20174;-72
2022/04/22 08:03:17;;;;;;;2.08;1.52;;;17.90;99.90;16.30;100618.00;;;;5074435;28;20192;-71
2022/04/22 08:05:48;;;;;;;2.67;1.33;;;16.90;99.90;17.10;100612.00;;;;5073844;28;20181;-70
2022/04/22 08:08:17;;;;;;;5.72;4.30;;;17.00;99.90;17.00;100591.00;;;;5074473;28;20276;-71
2022/04/22 08:10:45;;;;;;;6.10;4.15;;;17.30;99.90;15.50;100587.00;;;;5073897;28;20244;-70
2022/04/22 08:13:15;;;;;;;5.88;3.63;;;16.20;99.90;15.10;100583.00;;;;5073620;28;20211;-72
2022/04/22 08:15:43;;;;;;;3.33;3.13;;;15.70;99.90;17.30;100602.00;;;;5073870;28;20175;-72
2022/04/22 08:18:18;;;;;;;6.45;4.65;;;16.50;99.90;15.80;100593.00;;;;5075330;28;20530;-72
2022/04/22 08:20:44;;;;;;;1.55;1.55;;;16.70;99.90;17.30;100619.00;;;;5075669;28;20177;-72
2022/04/22 08:23:11;;;;;;;3.60;1.65;;;17.00;99.90;17.30;100626.00;;;;5074342;28;20188;-72
2022/04/22 08:25:37;;;;;;;3.95;3.20;;;17.10;99.90;17.60;100638.00;;;;5074242;28;20275;-70
2022/04/22 08:28:03;;;;;;;3.72;2.33;;;17.40;99.90;16.70;100629.00;;;;5074636;28;20587;-69
2022/04/22 08:30:30;;;;;;;0.60;0.60;;;16.70;99.90;15.50;100598.00;;;;5073065;28;20243;-69
2022/04/22 08:32:56;;;;;;;4.30;3.50;;;16.00;99.90;15.80;100610.00;;;;5073875;28;20214;-70
2022/04/22 08:35:23;;;;;;;3.97;3.27;;;16.00;99.90;14.60;100579.00;;;;5073290;28;20189;-71
2022/04/22 08:37:49;;;;;;;2.83;2.17;;;15.40;99.90;14.90;100567.00;;;;5075153;28;20202;-69
2022/04/22 08:40:15;;;;;;;5.10;3.70;;;15.00;99.90;15.20;100575.00;;;;5073344;28;20631;-69
2022/04/22 08:42:44;;;;;;;6.13;5.63;;;15.30;99.90;15.30;100583.00;;;;5072508;28;20200;-69
2022/04/22 08:45:10;;;;;;;5.30;3.43;;;15.20;99.90;15.00;100537.00;;;;5073666;28;20185;-69
2022/04/22 08:50:27;;;;;;;5.57;3.67;;;15.00;99.90;14.60;100546.00;;;;5081771;28;20204;-70
2022/04/22 08:53:05;;;;;;;2.60;2.33;;;14.80;99.90;14.60;100550.00;;;;5057709;28;20628;-70
2022/04/22 08:55:32;;;;;;;8.23;4.57;;;14.80;99.90;14.90;100564.00;;;;5063377;28;20178;-70
2022/04/22 08:58:03;;;;;;;4.10;3.53;;;14.80;99.90;14.70;100515.00;;;;5069998;28;20181;-70
2022/04/22 09:00:41;;;;;;;7.43;4.80;;;14.90;99.90;14.80;100556.00;;;;5069855;28;20179;-69
2022/04/22 09:03:10;;;;;;;2.80;2.47;;;15.10;99.90;15.40;100528.00;;;;5069900;28;20733;-70
2022/04/22 09:05:44;;;;;;;3.50;3.20;;;15.50;99.90;15.20;100577.00;;;;5070014;28;20207;-70
2022/04/22 09:08:14;;;;;;;3.37;2.53;;;15.80;99.90;15.80;100567.00;;;;5069628;28;20271;-70
2022/04/22 09:10:42;;;;;;;3.37;3.07;;;15.70;99.90;14.50;100543.00;;;;5069748;28;20185;-68
2022/04/22 09:13:10;;;;;;;4.33;3.33;;;15.20;99.90;14.30;100505.00;;;;5069375;28;20220;-70
2022/04/22 09:15:39;;;;;;;2.10;1.90;;;14.80;99.90;14.50;100504.00;;;;5052371;28;20186;-69
2022/04/22 09:18:15;;;;;;;2.77;1.60;;;14.70;99.90;14.80;100548.00;;;;5069500;28;20273;-68
2022/04/22 09:20:41;;;;;;;2.53;2.33;;;14.90;99.90;14.80;100548.00;;;;5069261;28;20183;-69
2022/04/22 09:23:31;;;;;;;2.87;2.67;;;15.00;99.90;15.20;100564.00;;;;5053236;28;20184;-69
2022/04/22 09:25:58;;;;;;;3.97;3.57;;;15.10;99.90;14.60;100543.00;;;;5069154;28;20318;-68
2022/04/22 09:28:29;;;;;;;2.70;2.50;;;14.90;99.90;14.80;100545.00;;;;5069503;28;20186;-69
2022/04/22 09:31:02;;;;;;;0.30;0.30;;;15.00;99.90;15.20;100547.00;;;;5069438;28;20535;-70
2022/04/22 09:33:44;;;;;;;2.70;1.43;;;15.20;99.90;15.80;100559.00;;;;5069161;28;20214;-69
2022/04/22 09:42:40;;;;;;;3.87;3.57;;;15.50;99.90;15.70;100548.00;;;;5066788;28;20202;-68
2022/04/22 09:45:11;;;;;;;4.93;2.57;;;15.70;99.90;15.50;100529.00;;;;5052533;28;20190;-69
2022/04/22 09:47:38;;;;;;;4.20;1.97;;;15.70;99.90;15.80;100567.00;;;;5069424;28;20631;-69
2022/04/22 09:50:11;;;;;;;13.13;6.87;;;15.60;99.90;15.70;100561.00;;;;5068888;28;20182;-69
2022/04/22 09:52:46;;;;;;;3.60;3.40;;;15.60;99.90;14.90;100539.00;;;;5052486;28;20704;-68
2022/04/22 09:55:21;;;;;;;2.90;1.70;;;15.20;99.90;15.40;100550.00;;;;5053272;28;20181;-69
2022/04/22 09:57:57;;;;;;;1.57;1.13;;;15.30;99.90;15.70;100523.00;;;;5052457;28;20173;-69
2022/04/22 10:00:31;;;;;;;3.30;3.00;;;15.50;99.90;15.10;100536.00;;;;5069025;28;20178;-68
2022/04/22 10:03:01;;;;;;;3.20;2.63;;;15.20;99.90;15.40;100548.00;;;;5052435;28;20576;-71
2022/04/22 10:05:31;;;;;;;2.50;2.30;;;15.20;99.90;15.40;100557.00;;;;5052042;28;20213;-73
2022/04/22 10:08:00;;;;;;;6.13;2.30;;;15.20;99.90;15.60;100556.00;;;;5068999;28;20172;-68
2022/04/22 10:10:38;;;;;;;5.13;2.90;;;15.40;99.90;16.60;100550.00;;;;5068241;28;20175;-69
2022/04/22 10:13:05;;;;;;;1.87;1.73;;;16.00;99.90;17.20;100559.00;;;;5051923;28;20314;-70
2022/04/22 10:15:39;;;;;;;2.93;2.60;;;16.70;99.90;17.00;100565.00;;;;5052263;28;20195;-70
2022/04/22 10:18:07;;;;;;;3.57;2.60;;;17.10;99.90;16.10;100551.00;;;;5068587;28;20201;-70
2022/04/22 10:20:39;;;;;;;1.97;1.23;;;16.80;99.90;16.70;100539.00;;;;5069047;28;20184;-70
2022/04/22 10:33:12;;;;;;;2.77;2.53;;;15.20;99.90;14.90;100507.00;;;;5125070;27;21012;-71
2022/04/22 10:35:43;;;;;;;0.90;0.90;;;15.10;99.90;15.40;100510.00;;;;5087027;28;20198;-73
2022/04/22 10:38:37;;;;;;;1.23;1.23;;;15.20;99.90;15.50;100538.00;;;;5063052;28;20656;-72
2022/04/22 10:41:22;;;;;;;1.40;1.40;;;15.30;99.90;15.80;100540.00;;;;5071206;28;20222;-73
2022/04/22 10:49:50;;;;;;;3.03;2.27;;;15.10;99.90;14.90;100487.00;;;;5083698;28;20179;-73
2022/04/22 10:52:19;;;;;;;4.50;1.17;;;14.90;99.90;15.20;100484.00;;;;5088139;28;20197;-72
2022/04/22 10:54:52;;;;;;;3.13;2.93;;;15.10;99.90;14.80;100509.00;;;;5080503;28;20615;-71
2022/04/22 10:57:29;;;;;;;4.03;2.70;;;15.10;99.90;14.60;100464.00;;;;5070270;28;20179;-72
2022/04/22 11:00:04;;;;;;;2.47;1.93;;;14.90;99.90;14.80;100496.00;;;;5068930;28;20188;-72
2022/04/22 11:02:34;;;;;;;2.40;2.03;;;14.80;99.90;14.60;100499.00;;;;5102305;28;20199;-72
2022/04/22 11:05:21;;;;;;;2.07;1.87;;;14.80;99.90;14.80;100499.00;;;;5072403;28;20210;-72
2022/04/22 11:07:53;;;;;;;2.03;1.83;;;14.70;99.90;14.70;100499.00;;;;5088563;28;20253;-72
2022/04/22 11:10:25;;;;;;;0.97;0.97;;;14.80;99.90;15.10;100474.00;;;;5089997;28;20190;-72
2022/04/22 11:12:59;;;;;;;1.50;1.40;;;15.00;99.90;15.20;100514.00;;;;5088780;28;20280;-72
2022/04/22 11:15:43;;;;;;;2.97;2.70;;;15.00;99.90;15.20;100507.00;;;;5088730;28;20181;-73
2022/04/22 11:18:21;;;;;;;4.20;3.57;;;15.10;99.90;14.70;100458.00;;;;5105674;28;20261;-73
2022/04/22 11:21:31;;;;;;;2.33;1.60;;;14.80;99.90;14.90;100503.00;;;;5088540;28;20165;-77
2022/04/22 11:24:00;;;;;;;5.83;5.23;;;15.00;99.90;14.90;100503.00;;;;5089666;28;20185;-68
2022/04/22 11:26:27;;;;;;;3.07;2.87;;;14.90;99.90;14.80;100497.00;;;;5071564;28;20183;-68
2022/04/22 11:28:54;;;;;;;4.57;2.93;;;14.80;99.90;14.80;100487.00;;;;5088932;28;20515;-68
2022/04/22 11:31:25;;;;;;;3.63;3.30;;;14.80;99.90;14.70;100496.00;;;;5087824;28;20219;-68
2022/04/22 11:33:57;;;;;;;0.77;0.77;;;14.80;99.90;15.00;100508.00;;;;5088526;28;20176;-68
2022/04/22 11:36:27;;;;;;;3.93;3.63;;;14.90;99.90;15.60;100519.00;;;;5087854;28;20239;-68
2022/04/22 11:38:55;;;;;;;2.20;2.00;;;15.30;99.90;15.80;100526.00;;;;5088474;28;20276;-68
2022/04/22 11:41:24;;;;;;;3.80;3.43;;;15.40;99.90;15.40;100521.00;;;;5088002;28;20172;-68
2022/04/22 11:43:50;;;;;;;2.27;1.83;;;15.50;99.90;15.50;100528.00;;;;5078778;28;20170;-68
2022/04/22 11:46:17;;;;;;;4.00;3.30;;;15.40;99.90;15.80;100527.00;;;;5075752;28;20174;-69
2022/04/22 11:48:49;;;;;;;4.10;3.40;;;15.50;99.90;15.30;100528.00;;;;5076492;28;20232;-68
2022/04/22 11:51:19;;;;;;;5.73;3.50;;;15.40;99.90;15.10;100524.00;;;;5074405;28;20731;-68
2022/04/22 11:53:50;;;;;;;2.97;2.03;;;15.20;99.90;15.10;100478.00;;;;5074719;28;20178;-68
2022/04/22 11:56:23;;;;;;;1.57;1.47;;;15.10;99.90;15.20;100514.00;;;;5074665;28;20186;-68
2022/04/22 11:58:56;;;;;;;0.77;0.77;;;15.20;99.90;15.10;100497.00;;;;5074452;28;20233;-69
2022/04/22 12:10:03;;;;;;;3.23;2.27;;;15.30;99.90;15.80;100515.00;;;;5074527;28;20188;-68
2022/04/22 12:12:31;;;;;;;6.23;4.53;;;15.50;99.90;15.50;100505.00;;;;5074310;28;20201;-68
2022/04/22 12:15:06;;;;;;;1.53;1.43;;;15.50;99.90;14.80;100485.00;;;;5074303;28;20537;-68
2022/04/22 12:17:32;;;;;;;2.93;2.67;;;15.10;99.90;15.40;100488.00;;;;5073953;28;20183;-68